sensor_id;sensor_type;location;lat;lon;timestamp;temperature;humidity
70079;DHT22;57451;52.496;13.456;2022-07-31T00:00:44;20.20;54.60
70079;DHT22;57451;52.496;13.456;2022-07-31T00:03:10;20.10;56.20
70079;DHT22;57451;52.496;13.456;2022-07-31T00:05:37;20.10;56.10
70079;DHT22;57451;52.496;13.456;2022-07-31T00:08:04;20.10;57.40
70079;DHT22;57451;52.496;13.456;2022-07-31T00:10:31;20.10;57.40
70079;DHT22;57451;52.496;13.456;2022-07-31T00:12:58;20.00;55.10
70079;DHT22;57451;52.496;13.456;2022-07-31T00:15:24;20.00;56.20
70079;DHT22;57451;52.496;13.456;2022-07-31T00:17:50;20.00;56.20
70079;DHT22;57451;52.496;13.456;2022-07-31T00:20:17;19.90;56.60
70079;DHT22;57451;52.496;13.456;2022-07-31T00:22:46;19.90;57.60
70079;DHT22;57451;52.496;13.456;2022-07-31T00:25:14;19.90;56.80
70079;DHT22;57451;52.496;13.456;2022-07-31T00:27:41;19.80;57.50
70079;DHT22;57451;52.496;13.456;2022-07-31T00:30:09;19.80;57.30
70079;DHT22;57451;52.496;13.456;2022-07-31T00:32:37;19.80;56.20
70079;DHT22;57451;52.496;13.456;2022-07-31T00:35:05;19.80;57.30
70079;DHT22;57451;52.496;13.456;2022-07-31T00:37:34;19.70;55.60
70079;DHT22;57451;52.496;13.456;2022-07-31T00:40:00;19.70;57.00
70079;DHT22;57451;52.496;13.456;2022-07-31T00:42:26;19.70;57.90
70079;DHT22;57451;52.496;13.456;2022-07-31T00:44:53;19.70;58.10
70079;DHT22;57451;52.496;13.456;2022-07-31T00:47:20;19.60;57.40
70079;DHT22;57451;52.496;13.456;2022-07-31T00:49:46;19.60;58.10
70079;DHT22;57451;52.496;13.456;2022-07-31T00:52:13;19.60;58.70
70079;DHT22;57451;52.496;13.456;2022-07-31T00:54:39;19.50;58.80
70079;DHT22;57451;52.496;13.456;2022-07-31T00:57:05;19.50;58.90
70079;DHT22;57451;52.496;13.456;2022-07-31T00:59:32;19.50;59.00
70079;DHT22;57451;52.496;13.456;2022-07-31T01:01:58;19.40;59.80
70079;DHT22;57451;52.496;13.456;2022-07-31T01:04:26;19.40;57.90
70079;DHT22;57451;52.496;13.456;2022-07-31T01:06:52;19.40;57.70
70079;DHT22;57451;52.496;13.456;2022-07-31T01:09:18;19.30;59.90
70079;DHT22;57451;52.496;13.456;2022-07-31T01:11:49;19.30;60.10
70079;DHT22;57451;52.496;13.456;2022-07-31T01:14:17;19.30;60.80
70079;DHT22;57451;52.496;13.456;2022-07-31T01:16:46;19.20;60.80
70079;DHT22;57451;52.496;13.456;2022-07-31T01:19:21;19.20;58.60
70079;DHT22;57451;52.496;13.456;2022-07-31T01:22:01;19.20;58.60
70079;DHT22;57451;52.496;13.456;2022-07-31T01:24:47;19.10;58.60
70079;DHT22;57451;52.496;13.456;2022-07-31T01:27:38;19.10;57.80
70079;DHT22;57451;52.496;13.456;2022-07-31T01:30:10;19.10;57.60
70079;DHT22;57451;52.496;13.456;2022-07-31T01:32:38;19.10;57.60
70079;DHT22;57451;52.496;13.456;2022-07-31T01:35:13;19.00;59.20
70079;DHT22;57451;52.496;13.456;2022-07-31T01:37:43;19.00;59.50
70079;DHT22;57451;52.496;13.456;2022-07-31T01:40:13;19.00;58.70
70079;DHT22;57451;52.496;13.456;2022-07-31T01:42:43;19.00;58.50
70079;DHT22;57451;52.496;13.456;2022-07-31T01:45:14;18.90;60.40
70079;DHT22;57451;52.496;13.456;2022-07-31T01:47:42;18.90;60.10
70079;DHT22;57451;52.496;13.456;2022-07-31T01:50:10;18.90;61.00
70079;DHT22;57451;52.496;13.456;2022-07-31T01:52:38;18.90;61.30
70079;DHT22;57451;52.496;13.456;2022-07-31T01:55:07;18.80;59.30
70079;DHT22;57451;52.496;13.456;2022-07-31T01:57:36;18.80;59.00
70079;DHT22;57451;52.496;13.456;2022-07-31T02:00:06;18.70;58.50
70079;DHT22;57451;52.496;13.456;2022-07-31T02:02:42;18.80;60.60
70079;DHT22;57451;52.496;13.456;2022-07-31T02:05:10;18.80;61.60
70079;DHT22;57451;52.496;13.456;2022-07-31T02:07:39;18.70;60.30
70079;DHT22;57451;52.496;13.456;2022-07-31T02:10:07;18.70;59.50
70079;DHT22;57451;52.496;13.456;2022-07-31T02:12:36;18.70;61.60
70079;DHT22;57451;52.496;13.456;2022-07-31T02:15:06;18.60;60.90
70079;DHT22;57451;52.496;13.456;2022-07-31T02:17:33;18.60;59.90
70079;DHT22;57451;52.496;13.456;2022-07-31T02:20:30;18.60;62.20
70079;DHT22;57451;52.496;13.456;2022-07-31T02:22:58;18.60;62.00
70079;DHT22;57451;52.496;13.456;2022-07-31T02:25:26;18.60;61.30
70079;DHT22;57451;52.496;13.456;2022-07-31T02:27:54;18.50;60.50
70079;DHT22;57451;52.496;13.456;2022-07-31T02:30:22;18.50;61.80
70079;DHT22;57451;52.496;13.456;2022-07-31T02:32:51;18.50;61.30
70079;DHT22;57451;52.496;13.456;2022-07-31T02:35:18;18.50;62.00
70079;DHT22;57451;52.496;13.456;2022-07-31T02:37:49;18.50;60.90
70079;DHT22;57451;52.496;13.456;2022-07-31T02:40:16;18.50;63.10
70079;DHT22;57451;52.496;13.456;2022-07-31T02:42:44;18.40;62.80
70079;DHT22;57451;52.496;13.456;2022-07-31T02:45:11;18.40;62.70
70079;DHT22;57451;52.496;13.456;2022-07-31T02:47:39;18.30;63.00
70079;DHT22;57451;52.496;13.456;2022-07-31T02:50:09;18.30;61.90
70079;DHT22;57451;52.496;13.456;2022-07-31T02:52:36;18.30;61.80
70079;DHT22;57451;52.496;13.456;2022-07-31T02:55:05;18.30;60.90
70079;DHT22;57451;52.496;13.456;2022-07-31T02:57:33;18.30;62.80
70079;DHT22;57451;52.496;13.456;2022-07-31T03:00:00;18.20;63.60
70079;DHT22;57451;52.496;13.456;2022-07-31T03:02:26;18.20;61.20
70079;DHT22;57451;52.496;13.456;2022-07-31T03:04:52;18.20;63.90
70079;DHT22;57451;52.496;13.456;2022-07-31T03:07:20;18.20;62.50
70079;DHT22;57451;52.496;13.456;2022-07-31T03:09:46;18.20;62.90
70079;DHT22;57451;52.496;13.456;2022-07-31T03:12:34;18.10;64.20
70079;DHT22;57451;52.496;13.456;2022-07-31T03:15:01;18.10;64.80
70079;DHT22;57451;52.496;13.456;2022-07-31T03:17:29;18.10;64.20
70079;DHT22;57451;52.496;13.456;2022-07-31T03:19:58;18.10;61.70
70079;DHT22;57451;52.496;13.456;2022-07-31T03:22:25;18.10;63.30
70079;DHT22;57451;52.496;13.456;2022-07-31T03:24:51;18.10;63.20
70079;DHT22;57451;52.496;13.456;2022-07-31T03:27:18;18.00;65.60
70079;DHT22;57451;52.496;13.456;2022-07-31T03:29:46;18.00;66.20
70079;DHT22;57451;52.496;13.456;2022-07-31T03:32:12;18.00;66.00
70079;DHT22;57451;52.496;13.456;2022-07-31T03:34:39;18.00;65.90
70079;DHT22;57451;52.496;13.456;2022-07-31T03:37:06;18.00;63.70
70079;DHT22;57451;52.496;13.456;2022-07-31T03:39:33;17.90;62.50
70079;DHT22;57451;52.496;13.456;2022-07-31T03:42:04;17.90;62.30
70079;DHT22;57451;52.496;13.456;2022-07-31T03:44:32;17.90;64.30
70079;DHT22;57451;52.496;13.456;2022-07-31T03:47:00;17.90;62.40
70079;DHT22;57451;52.496;13.456;2022-07-31T03:49:28;17.90;62.90
70079;DHT22;57451;52.496;13.456;2022-07-31T03:51:56;17.90;62.30
70079;DHT22;57451;52.496;13.456;2022-07-31T03:54:23;17.80;62.30
70079;DHT22;57451;52.496;13.456;2022-07-31T03:56:56;17.80;62.50
70079;DHT22;57451;52.496;13.456;2022-07-31T03:59:22;17.80;64.30
70079;DHT22;57451;52.496;13.456;2022-07-31T04:01:50;17.80;62.70
70079;DHT22;57451;52.496;13.456;2022-07-31T04:04:27;17.80;63.60
70079;DHT22;57451;52.496;13.456;2022-07-31T04:06:59;17.80;63.20
70079;DHT22;57451;52.496;13.456;2022-07-31T04:09:26;17.80;62.30
70079;DHT22;57451;52.496;13.456;2022-07-31T04:11:52;17.80;65.40
70079;DHT22;57451;52.496;13.456;2022-07-31T04:14:18;17.80;63.30
70079;DHT22;57451;52.496;13.456;2022-07-31T04:16:45;17.80;65.50
70079;DHT22;57451;52.496;13.456;2022-07-31T04:19:11;17.80;66.40
70079;DHT22;57451;52.496;13.456;2022-07-31T04:21:38;17.80;66.60
70079;DHT22;57451;52.496;13.456;2022-07-31T04:24:05;17.80;64.80
70079;DHT22;57451;52.496;13.456;2022-07-31T04:26:50;17.80;66.30
70079;DHT22;57451;52.496;13.456;2022-07-31T04:29:17;17.90;66.10
70079;DHT22;57451;52.496;13.456;2022-07-31T04:31:44;17.90;66.20
70079;DHT22;57451;52.496;13.456;2022-07-31T04:34:14;17.90;64.10
70079;DHT22;57451;52.496;13.456;2022-07-31T04:36:42;17.90;65.70
70079;DHT22;57451;52.496;13.456;2022-07-31T04:39:08;17.90;63.90
70079;DHT22;57451;52.496;13.456;2022-07-31T04:41:34;17.90;66.00
70079;DHT22;57451;52.496;13.456;2022-07-31T04:44:00;17.90;66.00
70079;DHT22;57451;52.496;13.456;2022-07-31T04:46:36;17.90;66.40
70079;DHT22;57451;52.496;13.456;2022-07-31T04:49:03;17.90;65.40
70079;DHT22;57451;52.496;13.456;2022-07-31T04:51:30;17.90;65.10
70079;DHT22;57451;52.496;13.456;2022-07-31T04:53:58;18.00;65.90
70079;DHT22;57451;52.496;13.456;2022-07-31T04:56:27;18.00;66.20
70079;DHT22;57451;52.496;13.456;2022-07-31T04:59:03;18.00;63.90
70079;DHT22;57451;52.496;13.456;2022-07-31T05:01:34;18.00;66.20
70079;DHT22;57451;52.496;13.456;2022-07-31T05:04:00;18.00;66.20
70079;DHT22;57451;52.496;13.456;2022-07-31T05:06:34;18.10;67.20
70079;DHT22;57451;52.496;13.456;2022-07-31T05:09:03;18.10;65.80
70079;DHT22;57451;52.496;13.456;2022-07-31T05:11:31;18.10;67.70
70079;DHT22;57451;52.496;13.456;2022-07-31T05:13:59;18.20;67.50
70079;DHT22;57451;52.496;13.456;2022-07-31T05:16:27;18.20;66.20
70079;DHT22;57451;52.496;13.456;2022-07-31T05:18:54;18.20;65.20
70079;DHT22;57451;52.496;13.456;2022-07-31T05:21:38;18.30;66.90
70079;DHT22;57451;52.496;13.456;2022-07-31T05:24:34;18.30;66.40
70079;DHT22;57451;52.496;13.456;2022-07-31T05:27:08;18.30;65.60
70079;DHT22;57451;52.496;13.456;2022-07-31T05:29:34;18.40;65.70
70079;DHT22;57451;52.496;13.456;2022-07-31T05:32:01;18.40;64.10
70079;DHT22;57451;52.496;13.456;2022-07-31T05:34:28;18.40;63.20
70079;DHT22;57451;52.496;13.456;2022-07-31T05:36:55;18.40;63.60
70079;DHT22;57451;52.496;13.456;2022-07-31T05:39:21;18.40;63.40
70079;DHT22;57451;52.496;13.456;2022-07-31T05:42:11;18.50;63.40
70079;DHT22;57451;52.496;13.456;2022-07-31T05:45:02;18.50;62.50
70079;DHT22;57451;52.496;13.456;2022-07-31T05:47:28;18.60;61.80
70079;DHT22;57451;52.496;13.456;2022-07-31T05:49:54;18.70;61.70
70079;DHT22;57451;52.496;13.456;2022-07-31T05:52:21;18.70;61.50
70079;DHT22;57451;52.496;13.456;2022-07-31T05:54:58;18.80;61.70
70079;DHT22;57451;52.496;13.456;2022-07-31T05:57:44;18.90;61.00
70079;DHT22;57451;52.496;13.456;2022-07-31T06:00:11;19.00;61.50
70079;DHT22;57451;52.496;13.456;2022-07-31T06:02:41;19.10;61.70
70079;DHT22;57451;52.496;13.456;2022-07-31T06:05:28;19.20;61.50
70079;DHT22;57451;52.496;13.456;2022-07-31T06:07:54;19.30;61.90
70079;DHT22;57451;52.496;13.456;2022-07-31T06:10:21;19.50;61.30
70079;DHT22;57451;52.496;13.456;2022-07-31T06:12:49;19.50;60.70
70079;DHT22;57451;52.496;13.456;2022-07-31T06:15:16;19.70;60.10
70079;DHT22;57451;52.496;13.456;2022-07-31T06:17:43;19.80;60.50
70079;DHT22;57451;52.496;13.456;2022-07-31T06:20:18;19.90;60.50
70079;DHT22;57451;52.496;13.456;2022-07-31T06:22:44;20.00;59.90
70079;DHT22;57451;52.496;13.456;2022-07-31T06:25:11;20.10;59.90
70079;DHT22;57451;52.496;13.456;2022-07-31T06:27:37;20.20;59.50
70079;DHT22;57451;52.496;13.456;2022-07-31T06:30:06;20.30;59.30
70079;DHT22;57451;52.496;13.456;2022-07-31T06:32:33;20.40;58.90
70079;DHT22;57451;52.496;13.456;2022-07-31T06:35:00;20.50;58.40
70079;DHT22;57451;52.496;13.456;2022-07-31T06:37:29;20.60;58.60
70079;DHT22;57451;52.496;13.456;2022-07-31T06:39:58;20.70;58.80
70079;DHT22;57451;52.496;13.456;2022-07-31T06:42:42;20.80;58.80
70079;DHT22;57451;52.496;13.456;2022-07-31T06:45:31;20.90;58.20
70079;DHT22;57451;52.496;13.456;2022-07-31T06:48:17;21.00;57.70
70079;DHT22;57451;52.496;13.456;2022-07-31T06:50:51;21.10;57.70
70079;DHT22;57451;52.496;13.456;2022-07-31T06:53:30;21.30;58.20
70079;DHT22;57451;52.496;13.456;2022-07-31T06:55:56;21.40;57.70
70079;DHT22;57451;52.496;13.456;2022-07-31T06:58:23;21.50;57.50
70079;DHT22;57451;52.496;13.456;2022-07-31T07:00:50;21.60;57.30
70079;DHT22;57451;52.496;13.456;2022-07-31T07:03:16;21.60;58.10
70079;DHT22;57451;52.496;13.456;2022-07-31T07:05:42;21.70;57.30
70079;DHT22;57451;52.496;13.456;2022-07-31T07:08:09;21.80;57.00
70079;DHT22;57451;52.496;13.456;2022-07-31T07:10:35;21.90;56.10
70079;DHT22;57451;52.496;13.456;2022-07-31T07:13:26;22.00;56.10
70079;DHT22;57451;52.496;13.456;2022-07-31T07:15:54;22.10;55.30
70079;DHT22;57451;52.496;13.456;2022-07-31T07:18:24;22.10;55.10
70079;DHT22;57451;52.496;13.456;2022-07-31T07:20:52;22.20;54.80
70079;DHT22;57451;52.496;13.456;2022-07-31T07:23:20;22.30;54.60
70079;DHT22;57451;52.496;13.456;2022-07-31T07:26:10;22.30;55.20
70079;DHT22;57451;52.496;13.456;2022-07-31T07:28:36;22.40;54.50
70079;DHT22;57451;52.496;13.456;2022-07-31T07:31:06;22.50;54.10
70079;DHT22;57451;52.496;13.456;2022-07-31T07:33:32;22.50;53.80
70079;DHT22;57451;52.496;13.456;2022-07-31T07:35:59;22.60;52.50
70079;DHT22;57451;52.496;13.456;2022-07-31T07:38:25;22.60;52.50
70079;DHT22;57451;52.496;13.456;2022-07-31T07:40:51;22.70;52.40
70079;DHT22;57451;52.496;13.456;2022-07-31T07:43:18;22.70;52.20
70079;DHT22;57451;52.496;13.456;2022-07-31T07:45:44;22.80;52.20
70079;DHT22;57451;52.496;13.456;2022-07-31T07:48:11;22.80;51.00
70079;DHT22;57451;52.496;13.456;2022-07-31T07:50:57;22.90;51.40
70079;DHT22;57451;52.496;13.456;2022-07-31T07:53:23;23.00;50.90
70079;DHT22;57451;52.496;13.456;2022-07-31T07:56:25;23.00;51.40
70079;DHT22;57451;52.496;13.456;2022-07-31T07:59:11;23.10;50.40
70079;DHT22;57451;52.496;13.456;2022-07-31T08:02:12;23.10;50.50
70079;DHT22;57451;52.496;13.456;2022-07-31T08:04:41;23.20;50.00
70079;DHT22;57451;52.496;13.456;2022-07-31T08:07:08;23.20;50.40
70079;DHT22;57451;52.496;13.456;2022-07-31T08:09:37;23.30;50.70
70079;DHT22;57451;52.496;13.456;2022-07-31T08:12:06;23.30;50.40
70079;DHT22;57451;52.496;13.456;2022-07-31T08:14:51;23.40;50.70
70079;DHT22;57451;52.496;13.456;2022-07-31T08:17:52;23.50;50.10
70079;DHT22;57451;52.496;13.456;2022-07-31T08:20:21;23.60;50.70
70079;DHT22;57451;52.496;13.456;2022-07-31T08:22:49;23.60;50.40
70079;DHT22;57451;52.496;13.456;2022-07-31T08:25:16;23.70;50.40
70079;DHT22;57451;52.496;13.456;2022-07-31T08:27:44;23.80;50.00
70079;DHT22;57451;52.496;13.456;2022-07-31T08:30:10;23.80;50.10
70079;DHT22;57451;52.496;13.456;2022-07-31T08:32:37;23.90;49.70
70079;DHT22;57451;52.496;13.456;2022-07-31T08:35:03;23.90;49.90
70079;DHT22;57451;52.496;13.456;2022-07-31T08:37:31;24.00;49.70
70079;DHT22;57451;52.496;13.456;2022-07-31T08:39:58;24.10;49.10
70079;DHT22;57451;52.496;13.456;2022-07-31T08:42:25;24.10;49.40
70079;DHT22;57451;52.496;13.456;2022-07-31T08:44:52;24.10;49.20
70079;DHT22;57451;52.496;13.456;2022-07-31T08:47:25;24.20;48.90
70079;DHT22;57451;52.496;13.456;2022-07-31T08:49:52;24.30;48.20
70079;DHT22;57451;52.496;13.456;2022-07-31T08:52:21;24.30;48.10
70079;DHT22;57451;52.496;13.456;2022-07-31T08:55:05;24.40;48.40
70079;DHT22;57451;52.496;13.456;2022-07-31T08:57:32;24.40;48.30
70079;DHT22;57451;52.496;13.456;2022-07-31T09:00:04;24.50;48.20
70079;DHT22;57451;52.496;13.456;2022-07-31T09:02:30;24.60;48.50
70079;DHT22;57451;52.496;13.456;2022-07-31T09:05:16;24.60;48.10
70079;DHT22;57451;52.496;13.456;2022-07-31T09:07:42;24.70;48.20
70079;DHT22;57451;52.496;13.456;2022-07-31T09:10:21;24.80;48.00
70079;DHT22;57451;52.496;13.456;2022-07-31T09:12:48;24.80;47.60
70079;DHT22;57451;52.496;13.456;2022-07-31T09:15:20;24.90;48.10
70079;DHT22;57451;52.496;13.456;2022-07-31T09:17:47;25.00;47.90
70079;DHT22;57451;52.496;13.456;2022-07-31T09:20:17;25.10;48.30
70079;DHT22;57451;52.496;13.456;2022-07-31T09:22:43;25.20;48.10
70079;DHT22;57451;52.496;13.456;2022-07-31T09:25:13;25.30;48.00
70079;DHT22;57451;52.496;13.456;2022-07-31T09:27:47;25.30;47.50
70079;DHT22;57451;52.496;13.456;2022-07-31T09:30:15;25.40;46.80
70079;DHT22;57451;52.496;13.456;2022-07-31T09:33:15;25.50;47.20
70079;DHT22;57451;52.496;13.456;2022-07-31T09:36:13;25.60;47.40
70079;DHT22;57451;52.496;13.456;2022-07-31T09:38:44;25.70;46.80
70079;DHT22;57451;52.496;13.456;2022-07-31T09:41:29;25.80;45.40
70079;DHT22;57451;52.496;13.456;2022-07-31T09:44:03;25.80;46.00
70079;DHT22;57451;52.496;13.456;2022-07-31T09:46:39;25.80;46.10
70079;DHT22;57451;52.496;13.456;2022-07-31T09:49:05;25.90;46.80
70079;DHT22;57451;52.496;13.456;2022-07-31T09:51:37;26.00;46.70
70079;DHT22;57451;52.496;13.456;2022-07-31T09:54:03;26.10;46.10
70079;DHT22;57451;52.496;13.456;2022-07-31T09:56:50;26.20;45.80
70079;DHT22;57451;52.496;13.456;2022-07-31T09:59:18;26.20;45.30
70079;DHT22;57451;52.496;13.456;2022-07-31T10:01:46;26.30;45.70
70079;DHT22;57451;52.496;13.456;2022-07-31T10:04:15;26.40;44.40
70079;DHT22;57451;52.496;13.456;2022-07-31T10:06:42;26.40;44.10
70079;DHT22;57451;52.496;13.456;2022-07-31T10:09:12;26.40;44.40
70079;DHT22;57451;52.496;13.456;2022-07-31T10:11:54;26.50;44.70
70079;DHT22;57451;52.496;13.456;2022-07-31T10:14:30;26.60;45.20
70079;DHT22;57451;52.496;13.456;2022-07-31T10:16:59;26.70;45.00
70079;DHT22;57451;52.496;13.456;2022-07-31T10:19:40;26.70;45.30
70079;DHT22;57451;52.496;13.456;2022-07-31T10:22:26;26.80;45.00
70079;DHT22;57451;52.496;13.456;2022-07-31T10:24:59;26.90;44.70
70079;DHT22;57451;52.496;13.456;2022-07-31T10:27:26;27.00;44.90
70079;DHT22;57451;52.496;13.456;2022-07-31T10:30:00;27.10;44.30
70079;DHT22;57451;52.496;13.456;2022-07-31T10:32:26;27.20;44.70
70079;DHT22;57451;52.496;13.456;2022-07-31T10:35:12;27.30;44.60
70079;DHT22;57451;52.496;13.456;2022-07-31T10:37:57;27.40;43.10
70079;DHT22;57451;52.496;13.456;2022-07-31T10:40:53;27.50;43.80
70079;DHT22;57451;52.496;13.456;2022-07-31T10:43:24;27.60;43.80
70079;DHT22;57451;52.496;13.456;2022-07-31T10:46:07;27.70;42.00
70079;DHT22;57451;52.496;13.456;2022-07-31T10:48:51;27.70;43.20
70079;DHT22;57451;52.496;13.456;2022-07-31T10:51:47;27.80;43.30
70079;DHT22;57451;52.496;13.456;2022-07-31T10:54:39;28.00;43.00
70079;DHT22;57451;52.496;13.456;2022-07-31T10:57:31;28.00;42.30
70079;DHT22;57451;52.496;13.456;2022-07-31T11:00:19;28.20;42.10
70079;DHT22;57451;52.496;13.456;2022-07-31T11:02:57;28.30;42.10
70079;DHT22;57451;52.496;13.456;2022-07-31T11:05:31;28.40;42.80
70079;DHT22;57451;52.496;13.456;2022-07-31T11:08:19;28.50;42.40
70079;DHT22;57451;52.496;13.456;2022-07-31T11:10:51;28.60;41.60
70079;DHT22;57451;52.496;13.456;2022-07-31T11:13:48;28.60;41.20
70079;DHT22;57451;52.496;13.456;2022-07-31T11:16:36;28.70;41.40
70079;DHT22;57451;52.496;13.456;2022-07-31T11:19:36;28.80;41.10
70079;DHT22;57451;52.496;13.456;2022-07-31T11:22:08;28.90;41.30
70079;DHT22;57451;52.496;13.456;2022-07-31T11:24:35;29.00;40.30
70079;DHT22;57451;52.496;13.456;2022-07-31T11:27:02;29.10;40.40
70079;DHT22;57451;52.496;13.456;2022-07-31T11:29:30;29.20;40.30
70079;DHT22;57451;52.496;13.456;2022-07-31T11:32:11;29.20;40.30
70079;DHT22;57451;52.496;13.456;2022-07-31T11:34:48;29.30;39.60
70079;DHT22;57451;52.496;13.456;2022-07-31T11:37:19;29.30;39.40
70079;DHT22;57451;52.496;13.456;2022-07-31T11:39:47;29.30;40.50
70079;DHT22;57451;52.496;13.456;2022-07-31T11:42:13;29.30;40.40
70079;DHT22;57451;52.496;13.456;2022-07-31T11:44:39;29.30;39.10
70079;DHT22;57451;52.496;13.456;2022-07-31T11:47:06;29.30;39.70
70079;DHT22;57451;52.496;13.456;2022-07-31T11:49:32;29.20;40.40
70079;DHT22;57451;52.496;13.456;2022-07-31T11:52:03;29.20;39.90
70079;DHT22;57451;52.496;13.456;2022-07-31T11:54:31;29.20;39.50
70079;DHT22;57451;52.496;13.456;2022-07-31T11:56:57;29.20;39.40
70079;DHT22;57451;52.496;13.456;2022-07-31T11:59:34;29.20;40.30
70079;DHT22;57451;52.496;13.456;2022-07-31T12:02:03;29.20;39.50
70079;DHT22;57451;52.496;13.456;2022-07-31T12:04:30;29.30;39.90
70079;DHT22;57451;52.496;13.456;2022-07-31T12:06:56;29.30;40.10
70079;DHT22;57451;52.496;13.456;2022-07-31T12:09:24;29.40;40.10
70079;DHT22;57451;52.496;13.456;2022-07-31T12:11:51;29.50;40.10
70079;DHT22;57451;52.496;13.456;2022-07-31T12:14:26;29.60;39.90
70079;DHT22;57451;52.496;13.456;2022-07-31T12:16:53;29.70;40.00
70079;DHT22;57451;52.496;13.456;2022-07-31T12:19:25;29.70;39.20
70079;DHT22;57451;52.496;13.456;2022-07-31T12:21:51;29.80;38.80
70079;DHT22;57451;52.496;13.456;2022-07-31T12:24:17;29.70;37.90
70079;DHT22;57451;52.496;13.456;2022-07-31T12:26:50;29.70;38.00
70079;DHT22;57451;52.496;13.456;2022-07-31T12:29:18;29.80;38.80
70079;DHT22;57451;52.496;13.456;2022-07-31T12:31:46;29.70;38.80
70079;DHT22;57451;52.496;13.456;2022-07-31T12:34:12;29.70;38.40
70079;DHT22;57451;52.496;13.456;2022-07-31T12:36:38;29.60;38.60
70079;DHT22;57451;52.496;13.456;2022-07-31T12:39:04;29.50;39.00
70079;DHT22;57451;52.496;13.456;2022-07-31T12:41:40;29.40;39.40
70079;DHT22;57451;52.496;13.456;2022-07-31T12:44:10;29.40;39.90
70079;DHT22;57451;52.496;13.456;2022-07-31T12:46:36;29.20;39.00
70079;DHT22;57451;52.496;13.456;2022-07-31T12:49:03;29.00;39.60
70079;DHT22;57451;52.496;13.456;2022-07-31T12:51:30;28.90;39.90
70079;DHT22;57451;52.496;13.456;2022-07-31T12:53:56;28.70;40.10
70079;DHT22;57451;52.496;13.456;2022-07-31T12:56:22;28.70;40.70
70079;DHT22;57451;52.496;13.456;2022-07-31T12:58:49;28.70;40.90
70079;DHT22;57451;52.496;13.456;2022-07-31T13:01:16;28.60;40.80
70079;DHT22;57451;52.496;13.456;2022-07-31T13:03:42;28.60;41.20
70079;DHT22;57451;52.496;13.456;2022-07-31T13:06:09;28.50;41.50
70079;DHT22;57451;52.496;13.456;2022-07-31T13:08:35;28.50;41.80
70079;DHT22;57451;52.496;13.456;2022-07-31T13:11:01;28.50;41.40
70079;DHT22;57451;52.496;13.456;2022-07-31T13:13:27;28.50;41.60
70079;DHT22;57451;52.496;13.456;2022-07-31T13:15:53;28.50;41.60
70079;DHT22;57451;52.496;13.456;2022-07-31T13:18:20;28.60;41.80
70079;DHT22;57451;52.496;13.456;2022-07-31T13:20:47;28.70;41.40
70079;DHT22;57451;52.496;13.456;2022-07-31T13:23:13;28.80;40.70
70079;DHT22;57451;52.496;13.456;2022-07-31T13:25:39;28.90;40.40
70079;DHT22;57451;52.496;13.456;2022-07-31T13:28:05;29.00;40.10
70079;DHT22;57451;52.496;13.456;2022-07-31T13:30:31;29.10;40.60
70079;DHT22;57451;52.496;13.456;2022-07-31T13:32:57;29.30;40.50
70079;DHT22;57451;52.496;13.456;2022-07-31T13:35:25;29.40;40.40
70079;DHT22;57451;52.496;13.456;2022-07-31T13:37:51;29.60;40.40
70079;DHT22;57451;52.496;13.456;2022-07-31T13:40:18;29.80;38.10
70079;DHT22;57451;52.496;13.456;2022-07-31T13:43:04;29.90;38.90
70079;DHT22;57451;52.496;13.456;2022-07-31T13:45:30;30.10;38.40
70079;DHT22;57451;52.496;13.456;2022-07-31T13:47:57;30.30;38.40
70079;DHT22;57451;52.496;13.456;2022-07-31T13:50:24;30.40;37.60
70079;DHT22;57451;52.496;13.456;2022-07-31T13:52:50;30.50;38.10
70079;DHT22;57451;52.496;13.456;2022-07-31T13:55:17;30.60;37.70
70079;DHT22;57451;52.496;13.456;2022-07-31T13:57:43;30.70;36.50
70079;DHT22;57451;52.496;13.456;2022-07-31T14:00:10;30.70;37.40
70079;DHT22;57451;52.496;13.456;2022-07-31T14:02:37;30.70;37.90
70079;DHT22;57451;52.496;13.456;2022-07-31T14:05:03;30.80;36.50
70079;DHT22;57451;52.496;13.456;2022-07-31T14:07:31;30.80;36.50
70079;DHT22;57451;52.496;13.456;2022-07-31T14:09:57;30.70;37.10
70079;DHT22;57451;52.496;13.456;2022-07-31T14:12:23;30.80;37.20
70079;DHT22;57451;52.496;13.456;2022-07-31T14:14:49;30.90;36.80
70079;DHT22;57451;52.496;13.456;2022-07-31T14:17:15;30.80;37.20
70079;DHT22;57451;52.496;13.456;2022-07-31T14:19:42;30.80;36.70
70079;DHT22;57451;52.496;13.456;2022-07-31T14:22:08;30.70;36.70
70079;DHT22;57451;52.496;13.456;2022-07-31T14:24:36;30.70;37.10
70079;DHT22;57451;52.496;13.456;2022-07-31T14:27:02;30.70;36.40
70079;DHT22;57451;52.496;13.456;2022-07-31T14:29:29;30.80;36.90
70079;DHT22;57451;52.496;13.456;2022-07-31T14:31:55;30.80;36.80
70079;DHT22;57451;52.496;13.456;2022-07-31T14:34:21;30.80;36.20
70079;DHT22;57451;52.496;13.456;2022-07-31T14:36:47;30.90;37.00
70079;DHT22;57451;52.496;13.456;2022-07-31T14:39:14;31.10;36.70
70079;DHT22;57451;52.496;13.456;2022-07-31T14:41:41;31.30;35.70
70079;DHT22;57451;52.496;13.456;2022-07-31T14:44:07;31.40;35.30
70079;DHT22;57451;52.496;13.456;2022-07-31T14:46:34;31.50;35.80
70079;DHT22;57451;52.496;13.456;2022-07-31T14:49:00;31.60;35.50
70079;DHT22;57451;52.496;13.456;2022-07-31T14:51:27;31.80;34.80
70079;DHT22;57451;52.496;13.456;2022-07-31T14:53:54;32.00;34.50
70079;DHT22;57451;52.496;13.456;2022-07-31T14:56:22;32.10;34.80
70079;DHT22;57451;52.496;13.456;2022-07-31T14:58:49;32.30;35.30
70079;DHT22;57451;52.496;13.456;2022-07-31T15:01:15;32.40;34.20
70079;DHT22;57451;52.496;13.456;2022-07-31T15:03:41;32.60;33.40
70079;DHT22;57451;52.496;13.456;2022-07-31T15:06:08;32.70;34.10
70079;DHT22;57451;52.496;13.456;2022-07-31T15:08:34;32.80;33.10
70079;DHT22;57451;52.496;13.456;2022-07-31T15:11:04;33.00;34.50
70079;DHT22;57451;52.496;13.456;2022-07-31T15:13:30;33.00;32.40
70079;DHT22;57451;52.496;13.456;2022-07-31T15:15:58;32.90;33.50
70079;DHT22;57451;52.496;13.456;2022-07-31T15:18:27;33.10;34.00
70079;DHT22;57451;52.496;13.456;2022-07-31T15:20:54;33.20;33.20
70079;DHT22;57451;52.496;13.456;2022-07-31T15:23:20;33.20;32.70
70079;DHT22;57451;52.496;13.456;2022-07-31T15:25:47;33.30;33.90
70079;DHT22;57451;52.496;13.456;2022-07-31T15:28:13;33.30;33.10
70079;DHT22;57451;52.496;13.456;2022-07-31T15:30:39;33.30;32.90
70079;DHT22;57451;52.496;13.456;2022-07-31T15:33:07;33.30;32.80
70079;DHT22;57451;52.496;13.456;2022-07-31T15:35:33;33.40;32.30